Aviation Digital Data Service (ADDS)

Output produced by METARs form (0911 UTC 29 March 2017)
found at http://aviationweather.gov/adds/metars/
 
KROA 290526Z 2906/3006 30005KT P6SM BKN035 
     FM291500 06004KT P6SM FEW090 
     FM300000 VRB03KT P6SM BKN050 
     FM300400 09004KT P6SM OVC025